Aérodrome :
LOGIN :

S'inscrire | Disclaimer

   EN    FR    IT 

 










Légende :    VFR   VFR Marginal   IFR   IFR Intensif   IFR Très Intensif
Visi : 
Plafond : 
>= 8 km
>= 3000ft
5 à 8 km
1000 à 3000 ft
1500m à 5 km
500 à 1000 ft
800 à 1500m
200 à 500 ft
< 800m
< 200 ft
Symboles :   Orages  Brouillard  Fortes neiges  Fortes précipitations  Vent > 20 kt
SIGMETs :   Divers  Orages  Givrage  Turbulence  Onde Orograph.  Cendres Volcan.






- Altitude de l'aérodrome : 587 ft
- Code IATA : XCR


LFOK - Chalons Vatry

DERNIER METAR :
  • 150530Z AUTO 01006KT 9000 NSC M01/M03 Q1028 NOSIG

METARs EXPIRÉS :
  • 150500Z AUTO 02007KT 9000 NSC M02/M04 Q1028 NOSIG
  • 150430Z AUTO 01006KT CAVOK M01/M04 Q1028 NOSIG
  • 150400Z AUTO 02006KT CAVOK M01/M04 Q1028 NOSIG
  • 150330Z AUTO 36005KT CAVOK M01/M04 Q1028 NOSIG
  • 150300Z AUTO 02005KT CAVOK M01/M04 Q1028 NOSIG

TAF TAF LFOK
Valide du 15 à 00h jusqu'au 16 à 00h UTC


142300Z 1500/1524 03008KT CAVOK
TEMPO 1509/1518 BKN030TCU
PROB30
TEMPO 1515/1518 3000 SHRAGS BKN025CB



MET'MAP, la Météo Aéronautique d'un coup d'oeil ! - Copyright ORBIFLY Décembre 2007 - Disclaimer

ORBIFLY MET'MAP TEAM :

Programmation & Développement : Alexandra Zaïnal
Sur une idée originale de : Baudouin d'Aumeries
Assistance à la programmation : Marc-Olivier Méhu
Soutien technique & logistique : Manuel Goepfert

Contact : metmap@orbifly.com




SOURCES & CREDITS :

   NOAA